createdAt,value
2023-05-22T00:00:58.564Z,9.668007
2023-05-22T00:01:58.521Z,9.668017
2023-05-22T00:02:58.631Z,9.668021
2023-05-22T00:03:58.477Z,9.668014
2023-05-22T00:04:58.561Z,9.668011
2023-05-22T00:05:58.510Z,9.668027
2023-05-22T00:06:58.581Z,9.668009
2023-05-22T00:07:58.494Z,9.668002
2023-05-22T00:08:58.492Z,9.668001
2023-05-22T00:09:58.511Z,9.667966
2023-05-22T00:10:59.019Z,9.667945
2023-05-22T00:11:58.427Z,9.667997
2023-05-22T00:13:01.365Z,9.667981
2023-05-22T00:13:58.446Z,9.667973
2023-05-22T00:14:58.421Z,9.667978
2023-05-22T00:15:59.409Z,9.668037
2023-05-22T00:16:58.594Z,9.667973
2023-05-22T00:17:58.488Z,9.668033
2023-05-22T00:18:58.795Z,9.667980
2023-05-22T00:19:58.378Z,9.667974
2023-05-22T00:20:58.439Z,9.667968
2023-05-22T00:21:59.331Z,9.667983
2023-05-22T00:22:58.381Z,9.667999
2023-05-22T00:23:58.554Z,9.667999
2023-05-22T00:24:58.335Z,9.667958
2023-05-22T00:25:58.336Z,9.668011
2023-05-22T00:26:58.341Z,9.667999
2023-05-22T00:27:58.315Z,9.667950
2023-05-22T00:28:58.318Z,9.667936
2023-05-22T00:29:58.314Z,9.668048
2023-05-22T00:30:58.275Z,9.667960
2023-05-22T00:31:58.313Z,9.667948
2023-05-22T00:32:58.447Z,9.667984
2023-05-22T00:33:58.271Z,9.668007
2023-05-22T00:34:58.275Z,9.667965
2023-05-22T00:35:58.241Z,9.667965
2023-05-22T00:36:58.252Z,9.667970
2023-05-22T00:37:58.258Z,9.667966
2023-05-22T00:38:58.216Z,9.667995
2023-05-22T00:39:58.232Z,9.667956
2023-05-22T00:40:58.243Z,9.667987
2023-05-22T00:41:58.223Z,9.667985
2023-05-22T00:42:58.256Z,9.667953
2023-05-22T00:43:58.201Z,9.667946
2023-05-22T00:44:58.191Z,9.668032
2023-05-22T00:45:58.169Z,9.668068
2023-05-22T00:46:58.224Z,9.667953
2023-05-22T00:47:59.098Z,9.667939
2023-05-22T00:48:58.178Z,9.667991
2023-05-22T00:49:58.155Z,9.668002
2023-05-22T00:50:58.144Z,9.668032
2023-05-22T00:51:59.112Z,9.667989
2023-05-22T00:52:58.131Z,9.667986
2023-05-22T00:53:58.334Z,9.667992
2023-05-22T00:54:58.125Z,9.667993
2023-05-22T00:55:58.140Z,9.667983
2023-05-22T00:56:58.101Z,9.668015
2023-05-22T00:57:58.089Z,9.667998
2023-05-22T00:58:58.082Z,9.667984
2023-05-22T00:59:58.120Z,9.667984
2023-05-22T01:00:58.097Z,9.667991
2023-05-22T01:01:58.084Z,9.667986
2023-05-22T01:02:58.113Z,9.668001
2023-05-22T01:03:58.188Z,9.668072
2023-05-22T01:04:58.191Z,9.668027
2023-05-22T01:05:58.089Z,9.668021
2023-05-22T01:06:58.047Z,9.668022
2023-05-22T01:07:58.020Z,9.668017
2023-05-22T01:08:58.024Z,9.668007
2023-05-22T01:09:57.997Z,9.668007
2023-05-22T01:10:57.992Z,9.668037
2023-05-22T01:11:58.046Z,9.668039
2023-05-22T01:12:57.963Z,9.668040
2023-05-22T01:13:57.944Z,9.668043
2023-05-22T01:14:57.954Z,9.668023
2023-05-22T01:15:58.165Z,9.668034
2023-05-22T01:16:57.983Z,9.668015
2023-05-22T01:17:57.936Z,9.667999
2023-05-22T01:18:57.930Z,9.668029
2023-05-22T01:19:57.929Z,9.668000
2023-05-22T01:20:57.912Z,9.667975
2023-05-22T01:21:57.898Z,9.667999
2023-05-22T01:22:57.957Z,9.668010
2023-05-22T01:23:57.897Z,9.667996
2023-05-22T01:24:57.881Z,9.667979
2023-05-22T01:25:57.870Z,9.668015
2023-05-22T01:26:57.845Z,9.667995
2023-05-22T01:27:58.516Z,9.668038
2023-05-22T01:28:57.832Z,9.668022
2023-05-22T01:29:57.859Z,9.668009
2023-05-22T01:30:58.043Z,9.668062
2023-05-22T01:31:57.824Z,9.667967
2023-05-22T01:32:57.951Z,9.667942
2023-05-22T01:33:58.012Z,9.667995
2023-05-22T01:34:57.817Z,9.668049
2023-05-22T01:35:57.787Z,9.668040
2023-05-22T01:36:58.513Z,9.668054
2023-05-22T01:37:57.812Z,9.667979
2023-05-22T01:38:57.786Z,9.667977
2023-05-22T01:39:57.750Z,9.668022
2023-05-22T01:40:57.784Z,9.668041
2023-05-22T01:41:57.743Z,9.668014
2023-05-22T01:42:57.731Z,9.668045
2023-05-22T01:43:57.782Z,9.668015
2023-05-22T01:44:57.706Z,9.667975
2023-05-22T01:45:57.780Z,9.667966
2023-05-22T01:46:57.694Z,9.668057
2023-05-22T01:47:57.813Z,9.667979
2023-05-22T01:48:57.657Z,9.668036
2023-05-22T01:49:57.723Z,9.667955
2023-05-22T01:50:57.899Z,9.667959
2023-05-22T01:51:57.650Z,9.668006
2023-05-22T01:52:57.647Z,9.668078
2023-05-22T01:53:57.623Z,9.668077
2023-05-22T01:54:57.652Z,9.667950
2023-05-22T01:55:57.619Z,9.668061
2023-05-22T01:56:57.647Z,9.667987
2023-05-22T01:57:57.597Z,9.667964
2023-05-22T01:58:57.600Z,9.667973
2023-05-22T01:59:57.622Z,9.668010
2023-05-22T02:00:57.677Z,9.668036
2023-05-22T02:01:57.587Z,9.667961
2023-05-22T02:02:57.687Z,9.667952
2023-05-22T02:03:57.574Z,9.668011
2023-05-22T02:04:57.556Z,9.668017
2023-05-22T02:05:57.594Z,9.668064
2023-05-22T02:06:57.561Z,9.668107
2023-05-22T02:07:57.513Z,9.668066
2023-05-22T02:08:57.548Z,9.668036
2023-05-22T02:09:57.516Z,9.667988
2023-05-22T02:10:57.548Z,9.667969
2023-05-22T02:11:57.497Z,9.667983
2023-05-22T02:12:58.516Z,9.667950
2023-05-22T02:13:57.552Z,9.667899
2023-05-22T02:14:57.482Z,9.667977
2023-05-22T02:15:57.523Z,9.667994
2023-05-22T02:16:57.572Z,9.668002
2023-05-22T02:17:57.558Z,9.667939
2023-05-22T02:18:57.505Z,9.667924
2023-05-22T02:19:57.441Z,9.668030
2023-05-22T02:20:57.451Z,9.668039
2023-05-22T02:21:57.421Z,9.667996
2023-05-22T02:22:57.388Z,9.668050
2023-05-22T02:23:57.400Z,9.668074
2023-05-22T02:24:57.409Z,9.667978
2023-05-22T02:25:57.432Z,9.668068
2023-05-22T02:26:57.349Z,9.668024
2023-05-22T02:27:57.385Z,9.668013
2023-05-22T02:28:58.361Z,9.668076
2023-05-22T02:29:58.726Z,9.668084
2023-05-22T02:30:57.400Z,9.668050
2023-05-22T02:31:57.366Z,9.668010
2023-05-22T02:32:57.379Z,9.668033
2023-05-22T02:33:57.311Z,9.668082
2023-05-22T02:34:57.323Z,9.668027
2023-05-22T02:35:57.335Z,9.668017
2023-05-22T02:36:57.285Z,9.667950
2023-05-22T02:37:57.417Z,9.668022
2023-05-22T02:38:57.319Z,9.667985
2023-05-22T02:39:57.265Z,9.668006
2023-05-22T02:40:57.274Z,9.668040
2023-05-22T02:41:57.229Z,9.667987
2023-05-22T02:42:58.108Z,9.668010
2023-05-22T02:43:57.293Z,9.668073
2023-05-22T02:44:57.274Z,9.668102
2023-05-22T02:45:57.209Z,9.668135
2023-05-22T02:46:57.433Z,9.668150
2023-05-22T02:47:57.269Z,9.668138
2023-05-22T02:48:58.052Z,9.668140
2023-05-22T02:49:58.117Z,9.668076
2023-05-22T02:50:57.192Z,9.668085
2023-05-22T02:51:57.216Z,9.668012
2023-05-22T02:52:57.222Z,9.668045
2023-05-22T02:53:57.213Z,9.668037
2023-05-22T02:54:57.225Z,9.668098
2023-05-22T02:55:57.177Z,9.668117
2023-05-22T02:56:57.198Z,9.668127
2023-05-22T02:57:57.124Z,9.668139
2023-05-22T02:58:57.130Z,9.668147
2023-05-22T02:59:57.216Z,9.668106
2023-05-22T03:00:57.119Z,9.668111
2023-05-22T03:01:58.109Z,9.668114
2023-05-22T03:02:57.236Z,9.668104
2023-05-22T03:03:57.995Z,9.668006
2023-05-22T03:04:57.117Z,9.668066
2023-05-22T03:05:57.067Z,9.668015
2023-05-22T03:06:57.090Z,9.668046
2023-05-22T03:07:57.052Z,9.668022
2023-05-22T03:08:57.051Z,9.668013
2023-05-22T03:09:57.108Z,9.668031
2023-05-22T03:10:58.038Z,9.668036
2023-05-22T03:11:57.050Z,9.668045
2023-05-22T03:12:58.021Z,9.668036
2023-05-22T03:13:56.990Z,9.668054
2023-05-22T03:14:58.031Z,9.668053
2023-05-22T03:15:57.014Z,9.668051
2023-05-22T03:16:56.988Z,9.668033
2023-05-22T03:17:57.029Z,9.668020
2023-05-22T03:18:56.974Z,9.667986
2023-05-22T03:19:57.084Z,9.668017
2023-05-22T03:20:56.982Z,9.667942
2023-05-22T03:21:56.953Z,9.668028
2023-05-22T03:22:56.945Z,9.668005
2023-05-22T03:23:56.958Z,9.668019
2023-05-22T03:24:56.983Z,9.668057
2023-05-22T03:25:56.974Z,9.668041
2023-05-22T03:26:56.981Z,9.668056
2023-05-22T03:27:56.891Z,9.668015
2023-05-22T03:28:56.963Z,9.668034
2023-05-22T03:29:56.897Z,9.668080
2023-05-22T03:30:56.901Z,9.667999
2023-05-22T03:31:56.872Z,9.668015
2023-05-22T03:32:57.856Z,9.668062
2023-05-22T03:33:56.884Z,9.668038
2023-05-22T03:34:56.866Z,9.668060
2023-05-22T03:35:56.842Z,9.668052
2023-05-22T03:36:56.827Z,9.668036
2023-05-22T03:37:56.852Z,9.668070
2023-05-22T03:38:56.824Z,9.668086
2023-05-22T03:40:29.426Z,9.668103
2023-05-22T03:40:56.822Z,9.668108
2023-05-22T03:41:56.832Z,9.668138
2023-05-22T03:42:56.790Z,9.668155
2023-05-22T03:43:56.789Z,9.668095
2023-05-22T03:44:56.739Z,9.668127
2023-05-22T03:45:56.807Z,9.668096
2023-05-22T03:46:56.769Z,9.668072
2023-05-22T04:06:39.531Z,9.667959
2023-05-22T04:07:39.565Z,9.668050
2023-05-22T04:08:39.542Z,9.668082
2023-05-22T04:09:39.473Z,9.668090
2023-05-22T04:10:40.371Z,9.668119
2023-05-22T04:11:39.494Z,9.668107
2023-05-22T04:12:39.500Z,9.668113
2023-05-22T04:13:39.487Z,9.668124
2023-05-22T04:14:39.468Z,9.668125
2023-05-22T04:15:39.513Z,9.668076
2023-05-22T04:16:39.438Z,9.668089
2023-05-22T04:17:39.422Z,9.668088
2023-05-22T04:18:39.388Z,9.668108
2023-05-22T04:19:39.420Z,9.668118
2023-05-22T04:20:39.648Z,9.668116
2023-05-22T04:21:39.418Z,9.668102
2023-05-22T04:22:39.416Z,9.668102
2023-05-22T04:23:39.394Z,9.668086
2023-05-22T04:24:39.406Z,9.668063
2023-05-22T04:25:39.350Z,9.668061
2023-05-22T04:26:41.751Z,9.668090
2023-05-22T04:27:39.351Z,9.668097
2023-05-22T04:28:39.363Z,9.668106
2023-05-22T04:29:39.403Z,9.668118
2023-05-22T04:30:39.466Z,9.668066
2023-05-22T04:31:39.413Z,9.668079
2023-05-22T04:32:39.324Z,9.668134
2023-05-22T04:33:39.300Z,9.668101
2023-05-22T04:34:39.318Z,9.668094
2023-05-22T04:36:12.591Z,9.668068
2023-05-22T04:36:39.267Z,9.668074
2023-05-22T04:37:39.306Z,9.668079
2023-05-22T04:38:40.287Z,9.668093
2023-05-22T04:39:39.235Z,9.668180
2023-05-22T04:40:39.420Z,9.668082
2023-05-22T04:41:39.287Z,9.668036
2023-05-22T04:42:40.112Z,9.668108
2023-05-22T04:43:40.128Z,9.668072
2023-05-22T04:44:39.256Z,9.668096
2023-05-22T04:45:39.191Z,9.668087
2023-05-22T04:46:39.276Z,9.668077
2023-05-22T04:47:39.235Z,9.668072
2023-05-22T04:48:39.164Z,9.668110
2023-05-22T04:49:39.205Z,9.668100
2023-05-22T04:50:40.423Z,9.668117
2023-05-22T04:51:39.174Z,9.668083
2023-05-22T04:52:39.161Z,9.668060
2023-05-22T04:53:39.128Z,9.668133
2023-05-22T04:54:39.168Z,9.668089
2023-05-22T04:55:39.186Z,9.668101
2023-05-22T04:56:39.119Z,9.668058
2023-05-22T04:57:39.136Z,9.668113
2023-05-22T04:58:39.130Z,9.668047
2023-05-22T04:59:39.225Z,9.668125
2023-05-22T05:00:39.212Z,9.668099
2023-05-22T05:01:39.175Z,9.668072
2023-05-22T05:02:39.110Z,9.668059
2023-05-22T05:03:39.231Z,9.668038
2023-05-22T05:04:39.086Z,9.667981
2023-05-22T05:05:39.033Z,9.668037
2023-05-22T05:06:39.048Z,9.668040
2023-05-22T05:07:39.061Z,9.668004
2023-05-22T05:08:39.061Z,9.668037
2023-05-22T05:09:38.998Z,9.667992
2023-05-22T05:10:39.137Z,9.668010
2023-05-22T05:11:39.010Z,9.668052
2023-05-22T05:12:39.023Z,9.668047
2023-05-22T05:13:39.046Z,9.668041
2023-05-22T05:14:38.960Z,9.668036
2023-05-22T05:15:38.999Z,9.668035
2023-05-22T05:16:38.992Z,9.668040
2023-05-22T05:17:38.997Z,9.668034
2023-05-22T05:18:38.976Z,9.668007
2023-05-22T05:19:39.043Z,9.667989
2023-05-22T05:20:39.239Z,9.667978
2023-05-22T05:21:38.957Z,9.667978
2023-05-22T05:22:39.008Z,9.668013
2023-05-22T05:23:38.927Z,9.667961
2023-05-22T05:24:38.926Z,9.667993
2023-05-22T05:25:38.923Z,9.668010
2023-05-22T05:26:38.900Z,9.668015
2023-05-22T05:27:38.858Z,9.667984
2023-05-22T05:28:38.888Z,9.667997
2023-05-22T05:29:38.909Z,9.668015
2023-05-22T05:30:39.004Z,9.668015
2023-05-22T05:31:38.913Z,9.668012
2023-05-22T05:32:38.884Z,9.667984
2023-05-22T05:33:38.878Z,9.668005
2023-05-22T05:34:39.008Z,9.668051
2023-05-22T05:35:40.195Z,9.668009
2023-05-22T05:36:38.799Z,9.667994
2023-05-22T05:37:38.797Z,9.668037
2023-05-22T05:38:38.814Z,9.668016
2023-05-22T05:39:38.840Z,9.667998
2023-05-22T05:40:39.111Z,9.668008
2023-05-22T05:41:39.673Z,9.668014
2023-05-22T05:42:38.771Z,9.668008
2023-05-22T05:43:38.807Z,9.667996
2023-05-22T05:44:38.763Z,9.668026
2023-05-22T05:45:38.764Z,9.668042
2023-05-22T05:46:38.897Z,9.668030
2023-05-22T05:47:38.887Z,9.668055
2023-05-22T05:48:38.761Z,9.668052
2023-05-22T05:49:39.713Z,9.668009
2023-05-22T05:50:39.147Z,9.668036
2023-05-22T05:51:38.681Z,9.667997
2023-05-22T05:52:38.702Z,9.668040
2023-05-22T05:53:38.683Z,9.667995
2023-05-22T05:54:38.702Z,9.667976
2023-05-22T05:55:38.676Z,9.667974
2023-05-22T05:56:38.693Z,9.668030
2023-05-22T05:57:39.681Z,9.668043
2023-05-22T05:58:38.683Z,9.668041
2023-05-22T05:59:38.666Z,9.668076
2023-05-22T06:00:38.783Z,9.668060
2023-05-22T06:01:38.832Z,9.667990
2023-05-22T06:02:38.690Z,9.668005
2023-05-22T06:03:38.740Z,9.668039
2023-05-22T06:04:38.607Z,9.668042
2023-05-22T06:05:38.634Z,9.668021
2023-05-22T06:06:38.577Z,9.668055
2023-05-22T06:07:38.605Z,9.667957
2023-05-22T06:08:38.600Z,9.667966
2023-05-22T06:09:38.567Z,9.667982
2023-05-22T06:10:38.881Z,9.668066
2023-05-22T06:11:38.581Z,9.667944
2023-05-22T06:12:38.565Z,9.667961
2023-05-22T06:13:38.588Z,9.667970
2023-05-22T06:14:38.593Z,9.667963
2023-05-22T06:15:38.570Z,9.667926
2023-05-22T06:16:38.598Z,9.667919
2023-05-22T06:17:38.554Z,9.668004
2023-05-22T06:18:38.514Z,9.667931
2023-05-22T06:19:38.523Z,9.667968
2023-05-22T06:20:38.692Z,9.667950
2023-05-22T06:21:38.491Z,9.667989
2023-05-22T06:22:39.148Z,9.668028
2023-05-22T06:23:38.466Z,9.667978
2023-05-22T06:24:38.474Z,9.668007
2023-05-22T06:25:38.475Z,9.667999
2023-05-22T06:26:38.547Z,9.667965
2023-05-22T06:27:38.455Z,9.668092
2023-05-22T06:28:38.467Z,9.667995
2023-05-22T06:29:38.454Z,9.667946
2023-05-22T06:30:43.415Z,9.667977
2023-05-22T06:31:40.472Z,9.667971
2023-05-22T06:32:38.508Z,9.667977
2023-05-22T06:33:38.458Z,9.667956
2023-05-22T06:34:38.448Z,9.667979
2023-05-22T06:35:38.409Z,9.668014
2023-05-22T06:36:38.390Z,9.668003
2023-05-22T06:37:38.397Z,9.667995
2023-05-22T06:38:38.394Z,9.668023
2023-05-22T06:39:38.379Z,9.667999
2023-05-22T06:40:38.483Z,9.668044
2023-05-22T06:41:38.371Z,9.667990
2023-05-22T06:42:38.490Z,9.667965
2023-05-22T06:43:38.438Z,9.667953
2023-05-22T06:44:38.327Z,9.667973
2023-05-22T06:45:38.331Z,9.668000
2023-05-22T06:46:38.358Z,9.667982
2023-05-22T06:47:38.303Z,9.668043
2023-05-22T06:48:38.305Z,9.668014
2023-05-22T06:49:38.300Z,9.668042
2023-05-22T06:50:38.381Z,9.668015
2023-05-22T06:51:38.269Z,9.668010
2023-05-22T06:52:38.275Z,9.667990
2023-05-22T06:53:38.271Z,9.667978
2023-05-22T06:54:38.240Z,9.668042
2023-05-22T06:55:38.226Z,9.668041
2023-05-22T06:56:38.231Z,9.668031
2023-05-22T06:57:38.228Z,9.668036
2023-05-22T06:58:38.219Z,9.668036
2023-05-22T06:59:38.225Z,9.668023
2023-05-22T07:00:38.570Z,9.668041
2023-05-22T07:01:38.216Z,9.668007
2023-05-22T07:02:38.217Z,9.668035
2023-05-22T07:03:38.170Z,9.668036
2023-05-22T07:04:38.199Z,9.668009
2023-05-22T07:05:38.240Z,9.668032
2023-05-22T07:06:38.166Z,9.668036
2023-05-22T07:07:38.151Z,9.668009
2023-05-22T07:08:38.174Z,9.667992
2023-05-22T07:09:38.148Z,9.667987
2023-05-22T07:10:38.248Z,9.668007
2023-05-22T07:11:38.109Z,9.668010
2023-05-22T07:12:38.101Z,9.667992
2023-05-22T07:13:38.132Z,9.667977
2023-05-22T07:14:38.146Z,9.668029
2023-05-22T07:15:38.118Z,9.668016
2023-05-22T07:16:38.167Z,9.668005
2023-05-22T07:17:38.098Z,9.668051
2023-05-22T07:18:38.054Z,9.668018
2023-05-22T07:19:38.093Z,9.667984
2023-05-22T07:20:38.288Z,9.668020
2023-05-22T07:21:38.041Z,9.668066
2023-05-22T07:22:38.006Z,9.668004
2023-05-22T07:23:38.023Z,9.667998
2023-05-22T07:24:38.028Z,9.668017
2023-05-22T07:25:38.061Z,9.668010
2023-05-22T07:26:38.027Z,9.668026
2023-05-22T07:27:37.999Z,9.668007
2023-05-22T07:28:38.007Z,9.668002
2023-05-22T07:29:37.986Z,9.668004
2023-05-22T07:30:38.296Z,9.668010
2023-05-22T07:31:38.082Z,9.668003
2023-05-22T07:32:38.011Z,9.668050
2023-05-22T07:33:37.940Z,9.668066
2023-05-22T07:34:38.040Z,9.668073
2023-05-22T07:35:37.897Z,9.668009
2023-05-22T07:36:37.952Z,9.668045
2023-05-22T07:37:37.959Z,9.668011
2023-05-22T07:38:37.890Z,9.668048
2023-05-22T07:39:37.911Z,9.667998
2023-05-22T07:40:38.170Z,9.667981
2023-05-22T07:41:37.908Z,9.667992
2023-05-22T07:42:37.858Z,9.667988
2023-05-22T07:43:37.885Z,9.667929
2023-05-22T07:44:37.991Z,9.667942
2023-05-22T07:45:37.974Z,9.668009
2023-05-22T07:46:38.238Z,9.667986
2023-05-22T07:47:37.936Z,9.667955
2023-05-22T07:48:38.886Z,9.667995
2023-05-22T07:49:37.812Z,9.667972
2023-05-22T07:50:37.811Z,9.667977
2023-05-22T07:51:37.787Z,9.667963
2023-05-22T07:52:37.815Z,9.667946
2023-05-22T07:53:37.781Z,9.667914
2023-05-22T07:54:37.919Z,9.667973
2023-05-22T07:55:37.957Z,9.667933
2023-05-22T07:56:37.798Z,9.667974
2023-05-22T07:57:37.786Z,9.668002
2023-05-22T07:58:37.742Z,9.668003
2023-05-22T07:59:37.815Z,9.667985
2023-05-22T08:00:37.753Z,9.668010
2023-05-22T08:01:37.752Z,9.668025
2023-05-22T08:02:37.992Z,9.667990
2023-05-22T08:03:37.904Z,9.668045
2023-05-22T08:04:38.914Z,9.668023
2023-05-22T08:05:37.728Z,9.668028
2023-05-22T08:06:37.742Z,9.668057
2023-05-22T08:07:37.691Z,9.668052
2023-05-22T08:08:37.736Z,9.667984
2023-05-22T08:09:37.730Z,9.667946
2023-05-22T08:12:10.140Z,9.668015
2023-05-22T08:12:37.708Z,9.668049
2023-05-22T08:14:09.601Z,9.668055
2023-05-22T08:15:11.817Z,9.668077
2023-05-22T08:15:37.712Z,9.668015
2023-05-22T08:16:37.865Z,9.668047
2023-05-22T08:17:37.697Z,9.668063
2023-05-22T08:18:37.941Z,9.668056
2023-05-22T08:19:37.930Z,9.668057
2023-05-22T08:20:37.961Z,9.668034
2023-05-22T08:21:37.817Z,9.668052
2023-05-22T08:22:37.673Z,9.668032
2023-05-22T08:23:37.563Z,9.667991
2023-05-22T08:24:37.633Z,9.667997
2023-05-22T08:25:37.585Z,9.668007
2023-05-22T08:26:37.686Z,9.668036
2023-05-22T08:27:37.667Z,9.668033
2023-05-22T08:28:37.555Z,9.668007
2023-05-22T08:29:37.579Z,9.668019
2023-05-22T08:30:37.829Z,9.668013
2023-05-22T08:31:37.533Z,9.668000
2023-05-22T08:32:37.658Z,9.667987
2023-05-22T08:33:39.205Z,9.667960
2023-05-22T08:34:37.742Z,9.667912
2023-05-22T08:35:37.488Z,9.667948
2023-05-22T08:36:37.499Z,9.667918
2023-05-22T08:37:37.483Z,9.667939
2023-05-22T08:38:37.541Z,9.667938
2023-05-22T08:39:37.448Z,9.667965
2023-05-22T08:40:37.676Z,9.667966
2023-05-22T08:41:37.427Z,9.667961
2023-05-22T08:42:37.456Z,9.668002
2023-05-22T08:43:37.501Z,9.667971
2023-05-22T08:44:37.435Z,9.667980
2023-05-22T08:45:37.472Z,9.667987
2023-05-22T08:46:37.454Z,9.667993
2023-05-22T08:47:37.503Z,9.667990
2023-05-22T08:48:37.386Z,9.667988
2023-05-22T08:49:37.385Z,9.667991
2023-05-22T08:50:37.883Z,9.667951
2023-05-22T08:51:37.413Z,9.667977
2023-05-22T08:52:37.376Z,9.667954
2023-05-22T08:53:37.386Z,9.667961
2023-05-22T08:54:37.362Z,9.667975
2023-05-22T08:55:37.401Z,9.667958
2023-05-22T08:56:39.837Z,9.668018
2023-05-22T08:57:38.351Z,9.668002
2023-05-22T08:58:37.313Z,9.667976
2023-05-22T08:59:37.337Z,9.667996
2023-05-22T09:00:38.469Z,9.667981
2023-05-22T09:01:37.351Z,9.667975
2023-05-22T09:02:37.366Z,9.667982
2023-05-22T09:03:38.336Z,9.667961
2023-05-22T09:04:37.410Z,9.667956
2023-05-22T09:05:37.392Z,9.667974
2023-05-22T09:06:37.440Z,9.667997
2023-05-22T09:07:37.314Z,9.667994
2023-05-22T09:08:37.350Z,9.668003
2023-05-22T09:09:37.368Z,9.667968
2023-05-22T09:10:37.457Z,9.667964
2023-05-22T09:11:37.238Z,9.667959
2023-05-22T09:12:37.249Z,9.667952
2023-05-22T09:14:09.254Z,9.667952
2023-05-22T09:14:38.201Z,9.667957
2023-05-22T09:15:37.215Z,9.667972
2023-05-22T09:16:37.207Z,9.667965
2023-05-22T09:17:37.249Z,9.667979
2023-05-22T09:18:37.148Z,9.667988
2023-05-22T09:19:38.210Z,9.667988
2023-05-22T09:20:37.324Z,9.667996
2023-05-22T09:21:37.149Z,9.667966
2023-05-22T09:22:37.158Z,9.667971
2023-05-22T09:23:37.128Z,9.667997
2023-05-22T09:24:37.113Z,9.667992
2023-05-22T09:25:37.189Z,9.668002
2023-05-22T09:26:37.143Z,9.668015
2023-05-22T09:27:37.090Z,9.668022
2023-05-22T09:28:37.121Z,9.667977
2023-05-22T09:29:37.173Z,9.667980
2023-05-22T09:30:37.180Z,9.667973
2023-05-22T09:31:37.705Z,9.668015
2023-05-22T09:32:37.119Z,9.667961
2023-05-22T09:33:37.639Z,9.667983
2023-05-22T09:34:37.107Z,9.667931
2023-05-22T09:35:37.094Z,9.667948
2023-05-22T09:36:37.067Z,9.667966
2023-05-22T09:37:37.094Z,9.667952
2023-05-22T09:38:37.106Z,9.668016
2023-05-22T09:39:37.034Z,9.667990
2023-05-22T09:40:37.217Z,9.667950
2023-05-22T09:41:37.018Z,9.667919
2023-05-22T09:42:37.011Z,9.667900
2023-05-22T09:43:37.012Z,9.667912
2023-05-22T09:44:37.012Z,9.667981
2023-05-22T09:45:37.034Z,9.667973
2023-05-22T09:46:37.047Z,9.667978
2023-05-22T09:47:36.993Z,9.667990
2023-05-22T09:48:36.995Z,9.667938
2023-05-22T09:49:36.949Z,9.667932
2023-05-22T09:50:37.007Z,9.667967
2023-05-22T09:51:37.063Z,9.667946
2023-05-22T09:52:36.937Z,9.667921
2023-05-22T09:53:38.018Z,9.667938
2023-05-22T09:54:37.084Z,9.667928
2023-05-22T09:55:36.938Z,9.667973
2023-05-22T09:56:39.976Z,9.667959
2023-05-22T09:57:37.921Z,9.668008
2023-05-22T09:58:36.909Z,9.668014
2023-05-22T09:59:36.917Z,9.668021
2023-05-22T10:00:36.917Z,9.668002
2023-05-22T10:01:36.968Z,9.667997
2023-05-22T10:02:36.928Z,9.667996
2023-05-22T10:03:36.881Z,9.668004
2023-05-22T10:04:36.918Z,9.667999
2023-05-22T10:05:36.894Z,9.667999
2023-05-22T10:06:36.876Z,9.667978
2023-05-22T10:07:36.847Z,9.667952
2023-05-22T10:08:36.862Z,9.667931
2023-05-22T10:09:36.839Z,9.667978
2023-05-22T10:10:36.858Z,9.667952
2023-05-22T10:11:36.889Z,9.667979
2023-05-22T10:12:36.849Z,9.668015
2023-05-22T10:13:36.816Z,9.667980
2023-05-22T10:14:36.816Z,9.667999
2023-05-22T10:15:36.868Z,9.667983
2023-05-22T10:16:36.854Z,9.668009
2023-05-22T10:17:36.815Z,9.667963
2023-05-22T10:18:36.789Z,9.667930
2023-05-22T10:19:38.593Z,9.667959
2023-05-22T10:20:36.959Z,9.667967
2023-05-22T10:21:36.743Z,9.667973
2023-05-22T10:22:36.761Z,9.668017
2023-05-22T10:23:36.731Z,9.667985
2023-05-22T10:24:36.712Z,9.667991
2023-05-22T10:25:36.714Z,9.668027
2023-05-22T10:26:37.426Z,9.668014
2023-05-22T10:27:36.693Z,9.667992
2023-05-22T10:28:36.694Z,9.668032
2023-05-22T10:29:36.747Z,9.668027
2023-05-22T10:30:36.729Z,9.667974
2023-05-22T10:31:37.964Z,9.667985
2023-05-22T10:32:36.688Z,9.668019
2023-05-22T10:33:36.724Z,9.667992
2023-05-22T10:34:36.640Z,9.668019
2023-05-22T10:35:36.668Z,9.668000
2023-05-22T10:36:36.676Z,9.668027
2023-05-22T10:37:36.642Z,9.668022
2023-05-22T10:38:36.617Z,9.668046
2023-05-22T10:39:36.637Z,9.668077
2023-05-22T10:40:37.362Z,9.668057
2023-05-22T10:41:36.660Z,9.668041
2023-05-22T10:42:36.664Z,9.668017
2023-05-22T10:43:36.612Z,9.668021
2023-05-22T10:44:36.557Z,9.668010
2023-05-22T10:45:36.756Z,9.668004
2023-05-22T10:46:36.579Z,9.668020
2023-05-22T10:47:36.584Z,9.667962
2023-05-22T10:48:36.538Z,9.667974
2023-05-22T10:49:36.525Z,9.667963
2023-05-22T10:50:36.560Z,9.668046
2023-05-22T10:51:36.549Z,9.668077
2023-05-22T10:52:36.531Z,9.668047
2023-05-22T10:53:36.545Z,9.668006
2023-05-22T10:54:36.523Z,9.668014
2023-05-22T10:55:36.546Z,9.668064
2023-05-22T10:56:36.526Z,9.668044
2023-05-22T10:57:36.461Z,9.668044
2023-05-22T10:58:36.538Z,9.668023
2023-05-22T10:59:36.455Z,9.667992
2023-05-22T11:00:36.522Z,9.668026
2023-05-22T11:01:37.515Z,9.668018
2023-05-22T11:02:36.476Z,9.668042
2023-05-22T11:03:36.499Z,9.668024
2023-05-22T11:04:36.434Z,9.667994
2023-05-22T11:05:36.402Z,9.667959
2023-05-22T11:06:36.484Z,9.668027
2023-05-22T11:07:36.424Z,9.668026
2023-05-22T11:08:36.363Z,9.667991
2023-05-22T11:09:36.513Z,9.667970
2023-05-22T11:10:36.417Z,9.667953
2023-05-22T11:11:36.365Z,9.667953
2023-05-22T11:12:36.400Z,9.667996
2023-05-22T11:13:36.478Z,9.667989
2023-05-22T11:14:36.456Z,9.667964
2023-05-22T11:15:36.357Z,9.667969
2023-05-22T11:16:36.398Z,9.667991
2023-05-22T11:17:36.547Z,9.667936
2023-05-22T11:18:36.331Z,9.667943
2023-05-22T11:19:36.364Z,9.667935
2023-05-22T11:20:36.325Z,9.667926
2023-05-22T11:21:36.311Z,9.667927
2023-05-22T11:22:36.306Z,9.667926
2023-05-22T11:23:36.290Z,9.667942
2023-05-22T11:24:36.300Z,9.667938
2023-05-22T11:25:36.332Z,9.667962
2023-05-22T11:26:36.248Z,9.667943
2023-05-22T11:27:36.239Z,9.667992
2023-05-22T11:28:36.279Z,9.667974
2023-05-22T11:29:36.214Z,9.667981
2023-05-22T11:30:36.994Z,9.667986
2023-05-22T11:31:36.348Z,9.667961
2023-05-22T11:32:36.261Z,9.667966
2023-05-22T11:33:36.200Z,9.667942
2023-05-22T11:34:36.256Z,9.667950
2023-05-22T11:35:36.242Z,9.667952
2023-05-22T11:36:36.207Z,9.667976
2023-05-22T11:37:36.182Z,9.667998
2023-05-22T11:38:36.185Z,9.667982
2023-05-22T11:39:36.190Z,9.667978
2023-05-22T11:40:36.232Z,9.667971
2023-05-22T11:41:36.185Z,9.667976
2023-05-22T11:42:36.172Z,9.667957
2023-05-22T11:43:36.139Z,9.667951
2023-05-22T11:44:36.115Z,9.667960
2023-05-22T11:45:36.118Z,9.667958
2023-05-22T11:46:36.290Z,9.668015
2023-05-22T11:47:36.231Z,9.668013
2023-05-22T11:48:36.116Z,9.667970
2023-05-22T11:49:36.095Z,9.667955
2023-05-22T11:50:42.178Z,9.667987
2023-05-22T11:51:38.154Z,9.667975
2023-05-22T11:52:36.077Z,9.667945
2023-05-22T11:53:36.074Z,9.667950
2023-05-22T11:54:38.621Z,9.667970
2023-05-22T11:55:37.859Z,9.667965
2023-05-22T11:56:36.192Z,9.667938
2023-05-22T11:57:36.915Z,9.667944
2023-05-22T11:58:36.034Z,9.667982
2023-05-22T11:59:36.107Z,9.667976
2023-05-22T12:00:36.034Z,9.667954
2023-05-22T12:01:36.007Z,9.667979
2023-05-22T12:02:36.241Z,9.667958
2023-05-22T12:03:36.243Z,9.667979
2023-05-22T12:04:36.062Z,9.668003